createdAt,value
2017-12-23T00:02:17.869Z,10.45
2017-12-23T00:04:44.471Z,11.30
2017-12-23T00:07:11.091Z,12.48
2017-12-23T00:09:37.635Z,12.18
2017-12-23T00:12:04.225Z,10.05
2017-12-23T00:14:30.777Z,10.60
2017-12-23T00:16:57.306Z,12.13
2017-12-23T00:19:23.998Z,11.63
2017-12-23T00:21:50.921Z,11.20
2017-12-23T00:24:17.469Z,13.40
2017-12-23T00:26:44.154Z,11.18
2017-12-23T00:29:11.070Z,9.98
2017-12-23T00:31:37.615Z,12.65
2017-12-23T00:34:04.209Z,10.65
2017-12-23T00:36:31.138Z,9.73
2017-12-23T00:38:57.697Z,12.18
2017-12-23T00:41:24.301Z,11.85
2017-12-23T00:43:50.850Z,8.98
2017-12-23T00:46:17.397Z,10.18
2017-12-23T00:48:44.035Z,9.57
2017-12-23T00:51:10.582Z,9.95
2017-12-23T00:53:37.133Z,9.90
2017-12-23T00:56:03.834Z,10.68
2017-12-23T00:58:30.385Z,11.70
2017-12-23T01:00:56.949Z,9.93
2017-12-23T01:03:23.938Z,11.93
2017-12-23T01:05:50.561Z,10.43
2017-12-23T01:08:17.485Z,11.15
2017-12-23T01:10:44.078Z,9.52
2017-12-23T01:13:10.626Z,10.77
2017-12-23T01:15:37.169Z,15.48
2017-12-23T01:18:04.150Z,12.98
2017-12-23T01:20:30.695Z,12.00
2017-12-23T01:22:57.244Z,10.10
2017-12-23T01:25:23.838Z,16.73
2017-12-23T01:27:50.389Z,11.15
2017-12-23T01:30:17.022Z,12.27
2017-12-23T01:32:43.672Z,11.35
2017-12-23T01:35:10.423Z,11.12
2017-12-23T01:37:36.961Z,9.93
2017-12-23T01:40:03.587Z,12.15
2017-12-23T01:42:30.130Z,12.50
2017-12-23T01:44:56.669Z,12.82
2017-12-23T01:47:23.294Z,13.02
2017-12-23T01:49:49.914Z,10.15
2017-12-23T01:52:16.543Z,14.27
2017-12-23T01:54:43.145Z,13.00
2017-12-23T01:57:10.074Z,11.55
2017-12-23T01:59:36.618Z,11.43
2017-12-23T02:02:03.419Z,14.15
2017-12-23T02:04:30.334Z,13.85
2017-12-23T02:06:57.158Z,13.25
2017-12-23T02:09:23.762Z,13.45
2017-12-23T02:11:50.689Z,12.75
2017-12-23T02:14:17.258Z,16.87
2017-12-23T02:16:43.874Z,16.37
2017-12-23T02:19:10.458Z,12.02
2017-12-23T02:21:37.012Z,12.90
2017-12-23T02:24:04.078Z,11.85
2017-12-23T02:26:30.995Z,11.35
2017-12-23T02:28:57.542Z,12.40
2017-12-23T02:31:24.255Z,14.50
2017-12-23T02:33:50.803Z,12.18
2017-12-23T02:36:17.359Z,11.95
2017-12-23T02:38:43.970Z,12.70
2017-12-23T02:41:10.894Z,12.68
2017-12-23T02:43:37.434Z,12.48
2017-12-23T02:46:04.034Z,12.93
2017-12-23T02:48:30.973Z,14.85
2017-12-23T02:50:57.899Z,12.82
2017-12-23T02:53:24.516Z,16.80
2017-12-23T02:55:51.074Z,12.30
2017-12-23T02:58:17.747Z,13.73
2017-12-23T03:00:44.458Z,13.93
2017-12-23T03:03:11.003Z,13.20
2017-12-23T03:05:37.549Z,13.50
2017-12-23T03:08:04.232Z,14.10
2017-12-23T03:10:30.773Z,14.13
2017-12-23T03:12:57.314Z,15.63
2017-12-23T03:15:23.924Z,13.62
2017-12-23T03:17:50.857Z,15.98
2017-12-23T03:20:17.515Z,14.60
2017-12-23T03:22:44.116Z,14.25
2017-12-23T03:25:10.654Z,16.05
2017-12-23T03:27:37.193Z,16.87
2017-12-23T03:30:03.827Z,14.93
2017-12-23T03:32:30.398Z,13.85
2017-12-23T03:34:56.942Z,14.45
2017-12-23T03:37:23.544Z,17.25
2017-12-23T03:39:50.086Z,16.87
2017-12-23T03:42:16.627Z,15.60
2017-12-23T03:44:43.226Z,15.15
2017-12-23T03:47:09.766Z,19.30
2017-12-23T03:49:36.309Z,16.23
2017-12-23T03:52:02.918Z,18.58
2017-12-23T03:54:29.467Z,15.48
2017-12-23T03:56:56.018Z,19.20
2017-12-23T03:59:22.602Z,17.40
2017-12-23T04:01:49.154Z,16.33
2017-12-23T04:04:15.695Z,18.45
2017-12-23T04:06:42.422Z,16.92
2017-12-23T04:09:09.374Z,20.02
2017-12-23T04:11:35.961Z,19.45
2017-12-23T04:14:02.547Z,17.87
2017-12-23T04:16:29.154Z,17.95
2017-12-23T04:18:55.701Z,17.65
2017-12-23T04:21:22.307Z,19.95
2017-12-23T04:23:48.857Z,15.32
2017-12-23T04:26:15.769Z,20.58
2017-12-23T04:28:42.441Z,17.15
2017-12-23T04:31:08.974Z,17.77
2017-12-23T04:33:35.504Z,16.52
2017-12-23T04:36:02.165Z,22.62
2017-12-23T04:38:28.697Z,19.02
2017-12-23T04:40:55.238Z,21.45
2017-12-23T04:43:21.851Z,21.37
2017-12-23T04:45:48.761Z,23.92
2017-12-23T04:48:15.302Z,24.95
2017-12-23T04:50:42.211Z,21.92
2017-12-23T04:53:09.219Z,21.45
2017-12-23T04:55:35.775Z,20.55
2017-12-23T04:58:02.357Z,19.17
2017-12-23T05:00:29.343Z,21.15
2017-12-23T05:02:55.881Z,22.42
2017-12-23T05:05:22.517Z,19.42
2017-12-23T05:07:49.525Z,20.37
2017-12-23T05:10:16.110Z,22.58
2017-12-23T05:12:43.078Z,22.42
2017-12-23T05:15:09.998Z,21.02
2017-12-23T05:17:36.553Z,23.90
2017-12-23T05:20:03.158Z,18.70
2017-12-23T05:22:29.713Z,20.25
2017-12-23T05:24:56.258Z,15.90
2017-12-23T05:27:22.857Z,20.48
2017-12-23T05:29:49.762Z,18.30
2017-12-23T05:32:16.310Z,18.33
2017-12-23T05:34:42.914Z,17.37
2017-12-23T05:37:09.826Z,18.17
2017-12-23T05:39:36.381Z,19.77
2017-12-23T05:42:02.977Z,18.70
2017-12-23T05:44:29.525Z,17.75
2017-12-23T05:46:56.062Z,18.30
2017-12-23T05:49:30.078Z,16.77
2017-12-23T05:51:56.641Z,19.20
2017-12-23T05:54:23.174Z,20.62
2017-12-23T05:56:50.169Z,20.27
2017-12-23T05:59:16.735Z,18.55
2017-12-23T06:01:43.279Z,18.95
2017-12-23T06:04:09.963Z,20.52
2017-12-23T06:06:36.878Z,18.92
2017-12-23T06:09:03.558Z,16.45
2017-12-23T06:11:30.163Z,16.75
2017-12-23T06:13:56.833Z,17.02
2017-12-23T06:16:23.482Z,18.12
2017-12-23T06:18:50.078Z,16.80
2017-12-23T06:21:16.679Z,16.90
2017-12-23T06:23:43.330Z,16.33
2017-12-23T06:26:10.080Z,16.98
2017-12-23T06:28:36.634Z,20.40
2017-12-23T06:31:03.173Z,18.60
2017-12-23T06:33:29.770Z,17.52
2017-12-23T06:35:56.699Z,16.80
2017-12-23T06:38:23.302Z,16.98
2017-12-23T06:40:49.916Z,18.60
2017-12-23T06:43:16.834Z,17.37
2017-12-23T06:45:43.383Z,19.02
2017-12-23T06:48:10.018Z,18.50
2017-12-23T06:50:36.562Z,16.77
2017-12-23T06:53:03.106Z,15.23
2017-12-23T06:55:29.923Z,14.15
2017-12-23T06:57:56.906Z,14.13
2017-12-23T07:00:23.480Z,17.15
2017-12-23T07:02:50.082Z,14.45
2017-12-23T07:05:16.629Z,16.65
2017-12-23T07:07:43.222Z,15.77
2017-12-23T07:10:09.972Z,15.40
2017-12-23T07:12:36.525Z,14.68
2017-12-23T07:15:03.119Z,14.90
2017-12-23T07:17:29.979Z,16.05
2017-12-23T07:19:56.525Z,15.75
2017-12-23T07:22:23.078Z,16.52
2017-12-23T07:24:49.815Z,18.30
2017-12-23T07:27:16.746Z,14.32
2017-12-23T07:29:43.294Z,14.05
2017-12-23T07:32:09.998Z,16.85
2017-12-23T07:34:36.671Z,14.93
2017-12-23T07:37:03.229Z,14.45
2017-12-23T07:39:29.846Z,15.30
2017-12-23T07:41:56.437Z,12.85
2017-12-23T07:44:22.977Z,15.98
2017-12-23T07:46:49.582Z,14.30
2017-12-23T07:49:16.158Z,24.27
2017-12-23T07:51:42.809Z,18.17
2017-12-23T07:54:09.408Z,20.55
2017-12-23T07:56:35.964Z,14.73
2017-12-23T07:59:02.530Z,15.60
2017-12-23T08:01:29.133Z,17.90
2017-12-23T08:03:55.683Z,15.82
2017-12-23T08:06:22.615Z,15.80
2017-12-23T08:08:49.234Z,22.55
2017-12-23T08:11:15.833Z,15.88
2017-12-23T08:13:42.756Z,14.98
2017-12-23T08:16:09.403Z,14.30
2017-12-23T08:18:35.947Z,15.75
2017-12-23T08:21:02.478Z,17.98
2017-12-23T08:23:29.122Z,16.50
2017-12-23T08:25:55.674Z,15.50
2017-12-23T08:28:22.215Z,18.02
2017-12-23T08:30:48.814Z,21.20
2017-12-23T08:33:15.366Z,17.92
2017-12-23T08:35:41.973Z,19.23
2017-12-23T08:38:08.566Z,15.40
2017-12-23T08:40:35.203Z,15.82
2017-12-23T08:43:01.782Z,16.62
2017-12-23T08:45:28.784Z,16.85
2017-12-23T08:47:55.334Z,18.25
2017-12-23T08:50:21.879Z,16.85
2017-12-23T08:52:48.497Z,15.20
2017-12-23T08:55:15.046Z,15.68
2017-12-23T08:57:41.581Z,16.73
2017-12-23T09:00:08.276Z,16.75
2017-12-23T09:02:34.924Z,15.15
2017-12-23T09:05:01.577Z,17.10
2017-12-23T09:07:28.329Z,15.95
2017-12-23T09:09:54.956Z,13.30
2017-12-23T09:12:21.631Z,17.25
2017-12-23T09:14:48.354Z,16.65
2017-12-23T09:17:14.898Z,14.77
2017-12-23T09:19:41.448Z,14.18
2017-12-23T09:22:08.138Z,13.18
2017-12-23T09:24:34.686Z,12.55
2017-12-23T09:27:01.308Z,13.25
2017-12-23T09:29:27.973Z,14.57
2017-12-23T09:31:54.619Z,12.93
2017-12-23T09:34:21.198Z,14.40
2017-12-23T09:36:47.893Z,14.02
2017-12-23T09:39:14.475Z,15.00
2017-12-23T09:41:41.031Z,13.40
2017-12-23T09:44:07.650Z,13.43
2017-12-23T09:46:34.194Z,12.88
2017-12-23T09:49:00.738Z,14.02
2017-12-23T09:51:27.432Z,14.40
2017-12-23T09:53:53.982Z,13.62
2017-12-23T09:56:20.538Z,13.60
2017-12-23T09:58:47.146Z,12.73
2017-12-23T10:01:13.714Z,12.98
2017-12-23T10:03:40.479Z,12.85
2017-12-23T10:06:07.629Z,14.30
2017-12-23T10:08:34.186Z,14.77
2017-12-23T10:11:00.726Z,12.73
2017-12-23T10:13:27.361Z,11.63
2017-12-23T10:15:54.819Z,13.05
2017-12-23T10:18:21.362Z,13.20
2017-12-23T10:20:47.994Z,14.60
2017-12-23T10:23:14.538Z,32.00
2017-12-23T10:25:41.086Z,19.55
2017-12-23T10:28:07.682Z,15.23
2017-12-23T10:30:34.238Z,19.08
2017-12-23T10:33:00.787Z,20.17
2017-12-23T10:35:27.762Z,22.37
2017-12-23T10:37:54.327Z,15.30
2017-12-23T10:40:20.941Z,15.20
2017-12-23T10:42:47.629Z,12.45
2017-12-23T10:45:14.174Z,13.40
2017-12-23T10:47:40.750Z,13.75
2017-12-23T10:50:07.355Z,14.48
2017-12-23T10:52:33.905Z,13.02
2017-12-23T10:55:00.509Z,16.70
2017-12-23T10:57:27.171Z,12.43
2017-12-23T10:59:53.710Z,12.05
2017-12-23T11:02:20.254Z,12.63
2017-12-23T11:04:47.266Z,13.40
2017-12-23T11:07:13.841Z,12.70
2017-12-23T11:09:40.785Z,11.00
2017-12-23T11:12:07.442Z,11.32
2017-12-23T11:14:33.997Z,10.32
2017-12-23T11:17:00.571Z,10.00
2017-12-23T11:19:27.178Z,9.80
2017-12-23T11:21:53.757Z,9.30
2017-12-23T11:24:20.736Z,9.10
2017-12-23T11:26:47.734Z,8.40
2017-12-23T11:29:14.279Z,8.05
2017-12-23T11:31:40.849Z,6.30
2017-12-23T11:34:10.314Z,6.85
2017-12-23T11:36:37.199Z,8.45
2017-12-23T11:39:03.826Z,9.27
2017-12-23T11:41:30.418Z,8.65
2017-12-23T11:43:57.000Z,7.62
2017-12-23T11:46:23.910Z,8.93
2017-12-23T11:48:50.516Z,8.43
2017-12-23T11:51:17.527Z,8.43
2017-12-23T11:53:44.080Z,8.25
2017-12-23T11:56:10.699Z,9.82
2017-12-23T11:58:37.238Z,8.27
2017-12-23T12:01:03.787Z,7.87
2017-12-23T12:03:30.538Z,8.55
2017-12-23T12:05:57.098Z,8.15
2017-12-23T12:08:23.763Z,10.95
2017-12-23T12:10:50.362Z,20.50
2017-12-23T12:13:17.344Z,7.32
2017-12-23T12:15:43.916Z,8.00
2017-12-23T12:18:10.630Z,7.00
2017-12-23T12:20:37.187Z,7.20
2017-12-23T12:23:03.742Z,8.38
2017-12-23T12:25:30.519Z,8.00
2017-12-23T12:27:57.117Z,7.47
2017-12-23T12:30:23.670Z,7.12
2017-12-23T12:32:50.647Z,6.53
2017-12-23T12:35:17.202Z,6.68
2017-12-23T12:37:43.756Z,9.15
2017-12-23T12:40:10.616Z,7.78
2017-12-23T12:42:37.170Z,7.35
2017-12-23T12:45:03.913Z,7.10
2017-12-23T12:47:30.530Z,6.10
2017-12-23T12:49:57.082Z,5.72
2017-12-23T12:52:23.641Z,6.78
2017-12-23T12:54:50.250Z,10.10
2017-12-23T12:57:17.177Z,10.30
2017-12-23T12:59:43.748Z,5.57
2017-12-23T13:02:10.945Z,6.80
2017-12-23T13:04:37.590Z,7.72
2017-12-23T13:07:04.146Z,7.35
2017-12-23T13:09:30.773Z,6.47
2017-12-23T13:11:57.337Z,6.43
2017-12-23T13:14:23.877Z,8.23
2017-12-23T13:16:50.529Z,6.65
2017-12-23T13:19:17.107Z,7.10
2017-12-23T13:21:43.755Z,6.55
2017-12-23T13:24:10.414Z,4.85
2017-12-23T13:26:37.053Z,5.15
2017-12-23T13:29:03.702Z,5.57
2017-12-23T13:31:30.556Z,5.28
2017-12-23T13:33:57.216Z,4.53
2017-12-23T13:36:23.855Z,5.47
2017-12-23T13:38:50.458Z,8.07
2017-12-23T13:41:17.022Z,6.75
2017-12-23T13:43:43.558Z,17.23
2017-12-23T13:46:10.249Z,17.27
2017-12-23T13:48:36.870Z,12.55
2017-12-23T13:51:03.410Z,45.50
2017-12-23T13:53:30.065Z,11.80
2017-12-23T13:55:56.751Z,9.40
2017-12-23T13:58:23.365Z,7.28
2017-12-23T14:00:50.042Z,8.98
2017-12-23T14:03:16.614Z,7.90
2017-12-23T14:05:43.171Z,11.32
2017-12-23T14:08:10.141Z,6.10
2017-12-23T14:10:37.054Z,6.47
2017-12-23T14:13:03.659Z,13.98
2017-12-23T14:15:30.392Z,8.93
2017-12-23T14:17:57.302Z,27.95
2017-12-23T14:20:23.843Z,23.20
2017-12-23T14:22:50.446Z,8.30
2017-12-23T14:25:17.371Z,6.10
2017-12-23T14:27:43.923Z,4.78
2017-12-23T14:30:10.518Z,4.43
2017-12-23T14:32:37.070Z,4.45
2017-12-23T14:35:03.615Z,4.65
2017-12-23T14:37:30.331Z,5.53
2017-12-23T14:39:57.254Z,5.32
2017-12-23T14:42:23.806Z,6.22
2017-12-23T14:44:50.548Z,4.80
2017-12-23T14:47:17.199Z,4.28
2017-12-23T14:49:43.753Z,4.25
2017-12-23T14:52:10.551Z,5.75
2017-12-23T14:54:37.107Z,4.80
2017-12-23T14:57:03.670Z,5.12
2017-12-23T14:59:30.271Z,4.90
2017-12-23T15:01:56.805Z,4.82
2017-12-23T15:04:23.367Z,5.30
2017-12-23T15:06:49.967Z,4.60
2017-12-23T15:09:16.534Z,20.05
2017-12-23T15:11:43.089Z,5.90
2017-12-23T15:14:09.878Z,4.62
2017-12-23T15:16:36.794Z,5.25
2017-12-23T15:19:03.375Z,6.10
2017-12-23T15:21:30.382Z,5.85
2017-12-23T15:23:56.938Z,4.65
2017-12-23T15:26:23.587Z,4.82
2017-12-23T15:28:50.413Z,5.07
2017-12-23T15:31:16.962Z,5.20
2017-12-23T15:33:43.537Z,4.82
2017-12-23T15:36:10.192Z,5.20
2017-12-23T15:38:36.742Z,4.95
2017-12-23T15:41:03.309Z,5.95
2017-12-23T15:43:30.087Z,4.78
2017-12-23T15:45:56.622Z,5.30
2017-12-23T15:48:23.532Z,5.07
2017-12-23T15:50:50.122Z,5.70
2017-12-23T15:53:17.093Z,5.68
2017-12-23T15:55:43.663Z,7.30
2017-12-23T15:58:10.281Z,5.90
2017-12-23T16:00:37.210Z,6.05
2017-12-23T16:03:03.761Z,5.35
2017-12-23T16:05:30.538Z,5.70
2017-12-23T16:07:57.453Z,6.85
2017-12-23T16:10:23.994Z,5.32
2017-12-23T16:12:50.687Z,6.00
2017-12-23T16:15:17.640Z,5.65
2017-12-23T16:17:44.562Z,6.37
2017-12-23T16:20:11.410Z,6.57
2017-12-23T16:22:38.056Z,5.07
2017-12-23T16:25:04.685Z,5.82
2017-12-23T16:27:31.460Z,5.40
2017-12-23T16:29:58.111Z,6.25
2017-12-23T16:32:24.652Z,5.85
2017-12-23T16:34:51.307Z,6.20
2017-12-23T16:37:17.929Z,6.10
2017-12-23T16:39:44.504Z,5.40
2017-12-23T16:42:11.093Z,5.12
2017-12-23T16:44:38.108Z,6.30
2017-12-23T16:47:04.758Z,7.10
2017-12-23T16:49:31.358Z,6.43
2017-12-23T16:51:57.894Z,6.18
2017-12-23T16:54:24.837Z,5.57
2017-12-23T16:56:51.431Z,7.57
2017-12-23T16:59:18.082Z,6.60
2017-12-23T17:01:44.656Z,5.97
2017-12-23T17:04:11.406Z,6.50
2017-12-23T17:06:38.055Z,6.10
2017-12-23T17:09:04.704Z,6.90
2017-12-23T17:11:31.306Z,6.78
2017-12-23T17:13:57.902Z,7.35
2017-12-23T17:16:24.553Z,7.35
2017-12-23T17:18:51.201Z,7.07
2017-12-23T17:21:17.852Z,7.10
2017-12-23T17:23:44.414Z,7.12
2017-12-23T17:26:11.062Z,8.65
2017-12-23T17:28:49.826Z,7.68
2017-12-23T17:31:17.019Z,7.95
2017-12-23T17:33:43.694Z,7.07
2017-12-23T17:36:10.344Z,11.50
2017-12-23T17:38:37.299Z,11.68
2017-12-23T17:41:03.949Z,9.43
2017-12-23T17:43:30.597Z,8.27
2017-12-23T17:45:57.189Z,8.88
2017-12-23T17:48:24.308Z,9.35
2017-12-23T17:50:50.930Z,9.63
2017-12-23T17:53:17.606Z,8.77
2017-12-23T17:55:44.151Z,8.57
2017-12-23T17:58:10.778Z,9.80
2017-12-23T18:00:37.593Z,8.18
2017-12-23T18:03:04.587Z,8.18
2017-12-23T18:05:31.157Z,10.15
2017-12-23T18:07:57.770Z,8.57
2017-12-23T18:10:24.324Z,8.32
2017-12-23T18:12:50.904Z,7.82
2017-12-23T18:15:17.838Z,7.90
2017-12-23T18:17:44.510Z,8.75
2017-12-23T18:20:11.129Z,9.63
2017-12-23T18:22:37.808Z,8.02
2017-12-23T18:25:04.390Z,9.25
2017-12-23T18:27:31.414Z,11.05
2017-12-23T18:29:58.237Z,10.27
2017-12-23T18:32:25.020Z,10.02
2017-12-23T18:34:51.670Z,9.93
2017-12-23T18:37:18.262Z,10.20
2017-12-23T18:39:45.279Z,11.95
2017-12-23T18:42:11.904Z,10.50
2017-12-23T18:44:38.498Z,10.18
2017-12-23T18:47:05.121Z,10.70
2017-12-23T18:49:31.747Z,9.77
2017-12-23T18:51:58.498Z,10.77
2017-12-23T18:54:25.172Z,9.05
2017-12-23T18:56:51.822Z,8.35
2017-12-23T18:59:18.474Z,12.15
2017-12-23T19:01:45.124Z,11.02
2017-12-23T19:04:11.698Z,9.43
2017-12-23T19:06:38.390Z,10.60
2017-12-23T19:09:05.067Z,9.65
2017-12-23T19:11:31.717Z,9.93
2017-12-23T19:13:58.337Z,10.27
2017-12-23T19:16:37.305Z,9.95
2017-12-23T19:19:04.059Z,8.48
2017-12-23T19:21:30.633Z,9.10
2017-12-23T19:23:57.663Z,9.50
2017-12-23T19:26:24.502Z,10.65
2017-12-23T19:28:51.047Z,10.73
2017-12-23T19:31:17.689Z,10.65
2017-12-23T19:33:44.342Z,10.80
2017-12-23T19:36:10.911Z,11.12
2017-12-23T19:38:37.459Z,9.70
2017-12-23T19:41:04.165Z,9.38
2017-12-23T19:43:30.832Z,9.88
2017-12-23T19:45:57.405Z,9.40
2017-12-23T19:48:24.034Z,9.73
2017-12-23T19:50:50.703Z,9.07
2017-12-23T19:53:17.306Z,10.02
2017-12-23T19:55:43.979Z,9.35
2017-12-23T19:58:10.632Z,9.00
2017-12-23T20:00:37.402Z,8.63
2017-12-23T20:03:04.155Z,8.73
2017-12-23T20:05:30.804Z,8.73
2017-12-23T20:07:57.454Z,7.60
2017-12-23T20:10:24.250Z,9.43
2017-12-23T20:12:51.264Z,8.40
2017-12-23T20:15:17.821Z,7.65
2017-12-23T20:17:44.538Z,7.10
2017-12-23T20:20:11.086Z,8.07
2017-12-23T20:22:37.735Z,8.40
2017-12-23T20:25:04.387Z,8.10
2017-12-23T20:27:31.979Z,7.55
2017-12-23T20:29:58.956Z,6.60
2017-12-23T20:32:26.017Z,8.20
2017-12-23T20:34:52.862Z,7.05
2017-12-23T20:37:19.746Z,9.02
2017-12-23T20:39:47.089Z,7.15
2017-12-23T20:42:13.944Z,7.75
2017-12-23T20:44:40.793Z,7.05
2017-12-23T20:47:07.858Z,7.62
2017-12-23T20:49:34.731Z,6.78
2017-12-23T20:52:02.071Z,8.10
2017-12-23T20:54:29.133Z,7.05
2017-12-23T20:56:56.007Z,6.90
2017-12-23T20:59:23.356Z,7.75
2017-12-23T21:01:50.513Z,7.60
2017-12-23T21:04:18.185Z,8.90
2017-12-23T21:06:45.149Z,8.32
2017-12-23T21:09:12.305Z,7.60
2017-12-23T21:11:39.290Z,6.78
2017-12-23T21:14:06.664Z,8.55
2017-12-23T21:16:34.609Z,7.90
2017-12-23T21:19:01.487Z,9.88
2017-12-23T21:21:28.833Z,10.32
2017-12-23T21:23:55.889Z,10.98
2017-12-23T21:26:22.771Z,11.75
2017-12-23T21:28:50.115Z,11.88
2017-12-23T21:31:17.172Z,14.40
2017-12-23T21:33:44.025Z,14.60
2017-12-23T21:36:10.980Z,14.75
2017-12-23T21:38:37.933Z,19.30
2017-12-23T21:41:04.793Z,15.63
2017-12-23T21:43:31.745Z,15.45
2017-12-23T21:45:58.909Z,14.70
2017-12-23T21:48:25.867Z,15.50
2017-12-23T21:50:52.827Z,15.60
2017-12-23T21:53:19.984Z,15.63
2017-12-23T21:55:46.945Z,15.18
2017-12-23T21:58:13.792Z,16.87
2017-12-23T22:00:40.757Z,19.35
2017-12-23T22:03:07.707Z,18.27
2017-12-23T22:05:34.666Z,16.55
2017-12-23T22:08:01.726Z,21.37
2017-12-23T22:10:28.675Z,18.52
2017-12-23T22:12:55.640Z,16.48
2017-12-23T22:15:22.693Z,16.80
2017-12-23T22:17:49.573Z,17.80
2017-12-23T22:20:16.914Z,18.20
2017-12-23T22:22:43.874Z,20.00
2017-12-23T22:25:10.834Z,17.77
2017-12-23T22:27:37.677Z,18.40
2017-12-23T22:30:04.630Z,17.52
2017-12-23T22:32:31.602Z,18.15
2017-12-23T22:34:58.458Z,18.52
2017-12-23T22:37:25.407Z,16.25
2017-12-23T22:39:52.366Z,17.17
2017-12-23T22:42:31.508Z,17.48
2017-12-23T22:44:58.467Z,19.73
2017-12-23T22:47:25.413Z,20.48
2017-12-23T22:49:52.585Z,18.55
2017-12-23T22:52:19.547Z,17.75
2017-12-23T22:54:46.415Z,18.25
2017-12-23T22:57:13.964Z,19.27
2017-12-23T22:59:40.918Z,19.40
2017-12-23T23:02:08.083Z,20.17
2017-12-23T23:04:35.441Z,18.85
2017-12-23T23:07:03.124Z,15.27
2017-12-23T23:09:30.082Z,16.35
2017-12-23T23:11:57.034Z,17.45
2017-12-23T23:14:23.912Z,15.43
2017-12-23T23:16:51.154Z,17.67
2017-12-23T23:19:18.209Z,15.95
2017-12-23T23:21:45.167Z,15.30
2017-12-23T23:24:12.125Z,16.77
2017-12-23T23:26:38.734Z,16.58
2017-12-23T23:29:05.274Z,15.15
2017-12-23T23:31:31.925Z,16.83
2017-12-23T23:33:58.686Z,15.73
2017-12-23T23:36:25.355Z,15.90
2017-12-23T23:38:52.005Z,14.43
2017-12-23T23:41:18.654Z,18.05
2017-12-23T23:43:45.274Z,15.95
2017-12-23T23:46:11.823Z,16.25
2017-12-23T23:48:38.645Z,17.45
2017-12-23T23:51:05.551Z,16.58
2017-12-23T23:53:32.210Z,13.52
2017-12-23T23:55:58.854Z,14.75
2017-12-23T23:58:25.398Z,14.80
